• Join FlightAware (Why Join?)
  • Login
  • US Flag GB Flag 
19:23 EDT


 

Airport Tracker/Info


-or-


 

Live Flight TrackerFlight Track Log ✈ UAL4335 ✈ 11-Apr-2013 ✈ KIAH - KABQ

Flight Track Log - Related Links

Times and Time Zones

All times are in EDT time to prevent confusion due to time zone crossing. See the UAL4335 flight status page for this flight to view local times or setup timezone preferences in your user account.

Time Position Orientation Groundspeed Altitude Reporting Facility
EDT Latitude Longitude Course Direction KTS MPH feet Rate Location/Type
16:59 29.9861 -95.3575 291° West 169 194 700  Level Houston Center
17:00 29.9897 -95.4272 273° West 244 281 2,100 1,740 Climbing Houston Center
17:00 29.9847 -95.4589 260° West 271 312 3,200 3,060 Climbing Houston Center
17:01 29.9806 -95.5100 265° West 256 295 5,300 3,240 Climbing Houston Center
17:01 29.9753 -95.5397 258° West 256 295 6,600 2,880 Climbing Houston Center
17:02 30.0322 -95.7896 277° West  Level FlightAware Approximate
17:02 29.9808 -95.5894 277° West 251 289 8,300  Level Houston Center
17:02 29.9878 -95.6322 281° West 259 298 9,800 2,400 Climbing Houston Center
17:03 30.0421 -95.9044 276° West  Level FlightAware Approximate
17:03 29.9956 -95.6686 284° West 253 291 10,800  Level Houston Center
17:03 30.0031 -95.7078 282° West 278 320 11,100 540 Climbing Houston Center
17:04 30.0560 -96.0181 291° West  Level FlightAware Approximate
17:04 30.0136 -95.7603 283° West 296 341 11,400  Level Houston Center
17:05 30.0369 -95.8844 282° West 330 380 13,500 1,680 Climbing Houston Center
17:06 30.0564 -95.9897 282° West 337 388 14,900 1,440 Climbing Houston Center
17:07 30.0761 -96.0928 282° West 345 397 16,500 1,440 Climbing Houston Center
17:08 30.0922 -96.2011 280° West 345 397 17,900 1,200 Climbing Houston Center
17:09 30.1125 -96.3339 280° West 351 404 19,000 1,020 Climbing Houston Center
17:10 30.1289 -96.4433 280° West 365 420 20,100 960 Climbing Houston Center
17:11 30.1464 -96.5594 280° West 365 420 21,100 720 Climbing Houston Center
17:12 30.1650 -96.6783 280° West 370 426 21,700 540 Climbing Houston Center
17:13 30.1867 -96.8239 280° West 385 443 22,300 600 Climbing Houston Center
17:14 30.2056 -96.9475 280° West 387 445 23,000 720 Climbing Houston Center
17:15 30.2236 -97.0731 279° West 390 449 23,800 720 Climbing Houston Center
17:16 30.2419 -97.1975 280° West 389 448 24,600 720 Climbing Houston Center
17:17 30.2600 -97.3214 280° West 387 445 25,300 720 Climbing Houston Center
17:18 30.2778 -97.4447 280° West 385 443 26,100 720 Climbing Houston Center
17:19 30.2961 -97.5675 280° West 381 438 26,900 720 Climbing Houston Center
17:20 30.3125 -97.6894 279° West 379 436 27,700 780 Climbing Houston Center
17:21 30.3383 -97.8289 282° West 375 432 28,600 780 Climbing Houston Center
17:23 30.3708 -97.9433 288° West 369 425 29,400 720 Climbing Houston Center
17:24 30.4025 -98.0597 288° West 373 429 30,200 720 Climbing Houston Center
17:25 30.4372 -98.1769 289° West 378 435 31,000 720 Climbing Houston Center
17:26 30.4711 -98.2961 288° West 382 440 31,700 780 Climbing Houston Center
17:27 30.5042 -98.4144 288° West 383 441 32,700 900 Climbing Houston Center
17:28 30.5367 -98.5317 288° West 379 436 33,600 600 Climbing Houston Center
17:29 30.5756 -98.6694 288° West 381 438 34,000 180 Climbing Houston Center
17:30 30.6092 -98.7892 288° West 385 443 34,000  Level Houston Center
17:31 30.6428 -98.9083 288° West 385 443 34,000  Level Houston Center
17:32 30.6756 -99.0286 288° West 386 444 34,000 -60 Level Houston Center
17:33 30.7094 -99.1481 288° West 384 442 33,900  Descending Houston Center
17:34 30.7422 -99.2658 288° West 384 442 34,000  Climbing Houston Center
17:35 30.7742 -99.3844 287° West 384 442 34,000  Level Houston Center
17:36 30.8108 -99.5244 287° West 378 435 34,000  Level Houston Center
17:37 30.8442 -99.6431 288° West 387 445 34,000  Level Houston Center
17:38 30.8764 -99.7619 288° West 386 444 34,000  Level Houston Center
17:39 30.9083 -99.8817 287° West 389 448 34,000  Level Houston Center
17:40 30.9394 -100.0006 287° West 385 443 34,000  Level Houston Center
17:41 30.9775 -100.1433 287° West 387 445 34,000  Level Houston Center
17:42 31.0106 -100.2625 288° West 391 450 34,000  Level Houston Center
17:43 31.0411 -100.3819 287° West 387 445 34,000  Level Houston Center
17:44 31.0833 -100.4975 293° West 387 445 34,000  Level Houston Center
17:45 31.1456 -100.6025 305° West 381 438 34,000 -60 Level Fort Worth Center
17:46 31.2119 -100.7044 307° West 393 452 33,900  Descending Fort Worth Center
17:47 31.2844 -100.8017 311° West 393 452 34,000  Climbing Fort Worth Center
17:48 31.3569 -100.8992 311° West 393 452 34,000  Level Fort Worth Center
17:48 31.3708 -100.9144 317° Northwest 398 458 34,000  Level Albuquerque Center
17:49 31.4314 -100.9969 311° West 393 452 34,000  Level Fort Worth Center
17:50 31.5039 -101.0972 310° West 398 458 34,000  Level Fort Worth Center
17:51 31.5761 -101.1953 311° West 398 458 34,000  Level Fort Worth Center
17:52 31.6522 -101.2958 312° West 398 458 34,000  Level Fort Worth Center
17:53 31.7203 -101.3917 310° West 393 452 34,000  Level Fort Worth Center
17:54 31.7964 -101.4950 311° West 403 464 34,000  Level Fort Worth Center
17:55 31.8681 -101.5936 311° West 403 464 34,000  Level Fort Worth Center
17:56 31.9419 -101.6950 311° West 403 464 34,000  Level Fort Worth Center
17:57 32.0117 -101.7939 310° West 397 457 34,000  Level Fort Worth Center
17:58 32.0911 -101.9056 310° West 405 466 34,000  Level Fort Worth Center
17:59 32.1628 -102.0072 310° West 405 466 34,000  Level Fort Worth Center
18:00 32.2342 -102.1064 310° West 400 460 34,000  Level Fort Worth Center
18:01 32.3056 -102.2061 310° West 400 460 34,000  Level Fort Worth Center
18:02 32.3767 -102.3083 309° West 400 460 34,000  Level Fort Worth Center
18:03 32.4519 -102.4108 311° West 406 467 34,000  Level Fort Worth Center
18:04 32.5253 -102.5108 311° West 406 467 34,000  Level Fort Worth Center
18:05 32.5881 -102.6056 308° West 401 461 34,000  Level Fort Worth Center
18:06 32.6611 -102.7061 311° West 401 461 34,000  Level Fort Worth Center
18:07 32.7319 -102.8092 309° West 401 461 34,000  Level Fort Worth Center
18:08 32.8047 -102.9072 311° West 401 461 34,000  Level Fort Worth Center
18:09 32.8714 -103.0078 308° West 396 456 34,000  Level Fort Worth Center
18:11 33.0083 -103.2042 310° West 396 456 34,000  Level Albuquerque Center
18:12 33.0775 -103.3022 310° West 390 449 34,000  Level Albuquerque Center
18:13 33.1467 -103.4025 309° West 390 449 34,000  Level Albuquerque Center
18:14 33.2150 -103.5036 309° West 391 450 34,000  Level Albuquerque Center
18:15 33.2836 -103.6014 310° West 387 445 34,000  Level Albuquerque Center
18:16 33.3706 -103.7233 311° West 393 452 34,000  Level Albuquerque Center
18:17 33.4381 -103.8233 309° West 390 449 34,000  Level Albuquerque Center
18:18 33.5106 -103.9308 309° West 388 447 34,000  Level Albuquerque Center
18:19 33.5786 -104.0311 309° West 389 448 34,000  Level Albuquerque Center
18:20 33.6522 -104.1392 309° West 390 449 34,000  Level Albuquerque Center
18:21 33.7206 -104.2406 309° West 392 451 34,000  Level Albuquerque Center
18:23 33.7950 -104.3506 309° West 396 456 34,000  Level Albuquerque Center
18:24 33.8636 -104.4531 309° West 395 455 34,000  Level Albuquerque Center
18:25 33.9317 -104.5553 309° West 393 452 34,000  Level Albuquerque Center
18:26 34.0047 -104.6631 309° West 388 447 34,000  Level Albuquerque Center
18:27 34.0733 -104.7633 310° West 389 448 34,000  Level Albuquerque Center
18:28 34.1403 -104.8661 308° West 387 445 34,000  Level Albuquerque Center
18:29 34.2086 -104.9686 309° West 388 447 34,000  Level Albuquerque Center
18:30 34.2772 -105.0711 309° West 388 447 34,000  Level Albuquerque Center
18:31 34.3453 -105.1733 309° West 387 445 34,000 -840 Level Albuquerque Center
18:32 34.4125 -105.2767 308° West 387 445 32,400 -1,920 Descending Albuquerque Center
18:33 34.4925 -105.3975 309° West 387 445 30,100 -2,100 Descending Albuquerque Center
18:34 34.5614 -105.5036 308° West 393 452 28,100 -2,340 Descending Albuquerque Center
18:35 34.6336 -105.6122 309° West 404 465 25,300 -2,700 Descending Albuquerque Center
18:36 34.6872 -105.6992 307° West 391 450 23,100 -2,460 Descending Albuquerque Center
18:36 34.7078 -105.7297 309° West 385 443 22,500 -2,460 Descending Albuquerque Center
18:37 34.7764 -105.8358 308° West 402 463 19,900 -2,340 Descending Albuquerque Center
18:38 34.8383 -105.9269 310° West 395 455 18,000 -2,280 Descending Albuquerque Center
18:39 34.8978 -106.0203 308° West 365 420 15,500 -2,640 Descending Albuquerque Center
18:40 34.9544 -106.1103 308° West 344 396 12,700 -2,640 Descending Albuquerque Center
18:41 34.9806 -106.2350 284° West 311 358 10,100 -1,500 Descending Albuquerque Center
18:42 35.0025 -106.3042 291° West 299 344 9,600 -600 Descending Albuquerque Center
18:43 35.0214 -106.3989 284° West 259 298 8,900 -720 Descending Albuquerque Center